| time (UTC) | temp F | wind direction | speed MPH | gust MPH | rain 1hr in | rain 24hr in | rain mn in | humidity % | barometer mb |
| 20260503233033 | 57 | 239 | 22.0 | 27.0 | 0.00 | 0.00 | 0.00 | 76 | 1003.8 |
| 20260503232606 | 57 | 238 | 21.0 | 27.0 | 0.00 | 0.00 | 0.00 | 75 | 1003.9 |
| 20260503232054 | 57 | 243 | 23.0 | 30.0 | 0.00 | 0.00 | 0.00 | 75 | 1003.9 |
| 20260503231537 | 57 | 239 | 26.0 | 30.0 | 0.00 | 0.00 | 0.00 | 74 | 1003.9 |
| 20260503231026 | 57 | 241 | 26.0 | 30.0 | 0.00 | 0.00 | 0.00 | 73 | 1003.9 |
| 20260503230600 | 57 | 245 | 25.0 | 30.0 | 0.00 | 0.00 | 0.00 | 74 | 1004.0 |
| 20260503230031 | 57 | 245 | 23.0 | 29.0 | 0.00 | 0.00 | 0.00 | 75 | 1004.1 |
| 20260503225532 | 58 | 250 | 23.0 | 29.0 | 0.00 | 0.00 | 0.00 | 75 | 1004.2 |
| 20260503225026 | 58 | 247 | 24.0 | 31.0 | 0.00 | 0.00 | 0.00 | 75 | 1004.3 |
| 20260503224536 | 58 | 251 | 25.0 | 37.0 | 0.00 | 0.00 | 0.00 | 73 | 1004.2 |
| 20260503224025 | 58 | 245 | 30.0 | 39.0 | 0.00 | 0.00 | 0.00 | 73 | 1004.3 |
| 20260503223601 | 58 | 241 | 33.0 | 39.0 | 0.00 | 0.00 | 0.00 | 71 | 1004.2 |
| 20260503223041 | 58 | 242 | 29.0 | 36.0 | 0.00 | 0.00 | 0.00 | 74 | 1004.2 |
| 20260503222525 | 59 | 243 | 32.0 | 36.0 | 0.00 | 0.00 | 0.00 | 73 | 1004.2 |
| 20260503222035 | 59 | 250 | 31.0 | 36.0 | 0.00 | 0.00 | 0.00 | 73 | 1004.2 |
| 20260503221536 | 59 | 242 | 28.0 | 35.0 | 0.00 | 0.00 | 0.00 | 73 | 1004.1 |
| 20260503221039 | 59 | 246 | 28.0 | 36.0 | 0.00 | 0.00 | 0.00 | 72 | 1004.1 |
| 20260503220529 | 59 | 242 | 30.0 | 40.0 | 0.00 | 0.00 | 0.00 | 72 | 1004.1 |
| 20260503220041 | 59 | 244 | 32.0 | 40.0 | 0.00 | 0.00 | 0.00 | 71 | 1004.1 |
| 20260503215547 | 59 | 246 | 26.0 | 35.0 | 0.00 | 0.00 | 0.00 | 72 | 1004.0 |
| 20260503215037 | 59 | 239 | 28.0 | 35.0 | 0.00 | 0.00 | 0.00 | 71 | 1003.9 |
| 20260503214525 | 59 | 244 | 27.0 | 32.0 | 0.00 | 0.00 | 0.00 | 71 | 1004.0 |
| 20260503214101 | 59 | 244 | 26.0 | 32.0 | 0.00 | 0.00 | 0.00 | 72 | 1004.0 |
| 20260503213525 | 59 | 236 | 25.0 | 28.0 | 0.00 | 0.00 | 0.00 | 73 | 1004.0 |
| 20260503213046 | 59 | 240 | 23.0 | 28.0 | 0.00 | 0.00 | 0.00 | 74 | 1004.0 |
| 20260503212535 | 59 | 243 | 25.0 | 28.0 | 0.00 | 0.00 | 0.00 | 73 | 1004.0 |
| 20260503212045 | 59 | 239 | 24.0 | 31.0 | 0.00 | 0.00 | 0.00 | 73 | 1004.0 |
| 20260503211533 | 60 | 244 | 24.0 | 31.0 | 0.00 | 0.00 | 0.00 | 72 | 1004.0 |
| 20260503211059 | 59 | 241 | 27.0 | 31.0 | 0.00 | 0.00 | 0.00 | 71 | 1004.0 |
| 20260503210535 | 59 | 243 | 26.0 | 30.0 | 0.00 | 0.00 | 0.00 | 72 | 1004.1 |
| 20260503210026 | 59 | 245 | 25.0 | 30.0 | 0.00 | 0.00 | 0.00 | 72 | 1004.1 |
| 20260503205535 | 59 | 241 | 20.0 | 24.0 | 0.00 | 0.00 | 0.00 | 74 | 1004.1 |
| 20260503205024 | 60 | 243 | 18.0 | 21.0 | 0.00 | 0.00 | 0.00 | 74 | 1004.2 |
| 20260503204527 | 60 | 247 | 18.0 | 20.0 | 0.00 | 0.00 | 0.00 | 76 | 1004.2 |
| 20260503204040 | 60 | 247 | 16.0 | 20.0 | 0.00 | 0.00 | 0.00 | 76 | 1004.3 |
| 20260503203527 | 60 | 251 | 17.0 | 23.0 | 0.00 | 0.00 | 0.00 | 76 | 1004.3 |
| 20260503203038 | 59 | 245 | 19.0 | 27.0 | 0.00 | 0.00 | 0.00 | 75 | 1004.3 |
| 20260503202543 | 59 | 247 | 21.0 | 31.0 | 0.00 | 0.00 | 0.00 | 75 | 1004.4 |
| 20260503202040 | 59 | 234 | 21.0 | 31.0 | 0.00 | 0.00 | 0.00 | 74 | 1004.5 |
| 20260503201559 | 60 | 234 | 22.0 | 28.0 | 0.00 | 0.00 | 0.00 | 72 | 1004.4 |
| 20260503201051 | 60 | 237 | 20.0 | 28.0 | 0.00 | 0.00 | 0.00 | 73 | 1004.6 |
| 20260503200538 | 60 | 241 | 21.0 | 28.0 | 0.00 | 0.00 | 0.00 | 72 | 1004.7 |
| 20260503200109 | 60 | 248 | 23.0 | 29.0 | 0.00 | 0.00 | 0.00 | 71 | 1004.7 |
| 20260503195523 | 60 | 232 | 25.0 | 31.0 | 0.00 | 0.00 | 0.00 | 70 | 1004.8 |
| 20260503195035 | 59 | 237 | 21.0 | 26.0 | 0.00 | 0.00 | 0.00 | 75 | 1004.9 |
| 20260503194539 | 59 | 246 | 18.0 | 21.0 | 0.00 | 0.00 | 0.00 | 73 | 1004.9 |
| 20260503194027 | 59 | 235 | 17.0 | 20.0 | 0.00 | 0.00 | 0.00 | 74 | 1005.0 |
| 20260503193541 | 59 | 227 | 14.0 | 20.0 | 0.00 | 0.00 | 0.00 | 74 | 1005.1 |
| 20260503193029 | 58 | 231 | 14.0 | 20.0 | 0.00 | 0.00 | 0.00 | 75 | 1005.2 |
| 20260503192537 | 57 | 240 | 16.0 | 19.0 | 0.00 | 0.00 | 0.00 | 75 | 1005.3 |
| 20260503192028 | 58 | 229 | 15.0 | 19.0 | 0.00 | 0.00 | 0.00 | 76 | 1005.4 |
| 20260503191535 | 58 | 236 | 17.0 | 21.0 | 0.00 | 0.00 | 0.00 | 74 | 1005.5 |
| 20260503191048 | 58 | 236 | 16.0 | 20.0 | 0.00 | 0.00 | 0.00 | 74 | 1005.6 |
| 20260503190526 | 58 | 230 | 17.0 | 20.0 | 0.00 | 0.00 | 0.00 | 73 | 1005.7 |
| 20260503190058 | 58 | 226 | 17.0 | 21.0 | 0.00 | 0.00 | 0.00 | 74 | 1005.8 |
| 20260503185523 | 57 | 233 | 18.0 | 22.0 | 0.00 | 0.00 | 0.00 | 73 | 1005.9 |
| 20260503185036 | 57 | 228 | 18.0 | 23.0 | 0.00 | 0.00 | 0.00 | 72 | 1005.9 |
| 20260503184546 | 57 | 235 | 20.0 | 24.0 | 0.00 | 0.00 | 0.00 | 72 | 1005.9 |
| 20260503184030 | 56 | 221 | 20.0 | 25.0 | 0.00 | 0.00 | 0.00 | 71 | 1005.8 |
| 20260503183041 | 56 | 232 | 21.0 | 25.0 | 0.00 | 0.00 | 0.00 | 71 | 1005.8 |
| 20260503182532 | 55 | 229 | 19.0 | 23.0 | 0.00 | 0.00 | 0.00 | 76 | 1005.9 |
| 20260503182040 | 54 | 224 | 14.0 | 22.0 | 0.00 | 0.00 | 0.00 | 77 | 1006.0 |
| 20260503181530 | 54 | 209 | 19.0 | 22.0 | 0.00 | 0.00 | 0.00 | 78 | 1005.9 |
| 20260503181036 | 54 | 209 | 18.0 | 21.0 | 0.00 | 0.00 | 0.00 | 79 | 1005.9 |
| 20260503180526 | 54 | 209 | 18.0 | 25.0 | 0.00 | 0.00 | 0.00 | 78 | 1006.0 |
| 20260503180044 | 54 | 208 | 18.0 | 25.0 | 0.00 | 0.00 | 0.00 | 75 | 1006.1 |
| 20260503175530 | 54 | 219 | 20.0 | 23.0 | 0.00 | 0.00 | 0.00 | 74 | 1006.1 |
| 20260503175047 | 54 | 226 | 19.0 | 23.0 | 0.00 | 0.00 | 0.00 | 76 | 1006.2 |
| 20260503174557 | 53 | 223 | 19.0 | 22.0 | 0.00 | 0.00 | 0.00 | 77 | 1006.4 |
| 20260503174055 | 53 | 221 | 17.0 | 21.0 | 0.00 | 0.00 | 0.00 | 79 | 1006.4 |
| 20260503173522 | 52 | 209 | 18.0 | 23.0 | 0.00 | 0.00 | 0.00 | 79 | 1006.4 |
| 20260503173044 | 52 | 214 | 18.0 | 23.0 | 0.00 | 0.00 | 0.00 | 78 | 1006.5 |
| 20260503172551 | 52 | 225 | 19.0 | 26.0 | 0.00 | 0.00 | 0.00 | 78 | 1006.7 |
| 20260503172042 | 52 | 215 | 20.0 | 26.0 | 0.00 | 0.00 | 0.00 | 78 | 1006.7 |
| 20260503171536 | 52 | 228 | 20.0 | 30.0 | 0.00 | 0.00 | 0.00 | 78 | 1006.9 |
| 20260503171027 | 52 | 232 | 24.0 | 30.0 | 0.00 | 0.00 | 0.00 | 78 | 1007.0 |
| 20260503170558 | 52 | 226 | 24.0 | 28.0 | 0.00 | 0.00 | 0.00 | 78 | 1007.1 |
| 20260503150558 | 53 | 248 | 23.0 | 26.0 | 0.00 | 0.00 | 0.00 | 70 | 1008.0 |
| 20260503131056 | 49 | 229 | 22.0 | 25.0 | 0.00 | 0.00 | 0.00 | 75 | 1008.6 |
| 20260503130523 | 49 | 251 | 21.0 | 24.0 | 0.00 | 0.00 | 0.00 | 75 | 1008.7 |
| 20260503110524 | 45 | 216 | 17.0 | 19.0 | 0.00 | 0.00 | 0.00 | 73 | 1009.1 |
| 20260503081544 | 47 | 239 | 15.0 | 18.0 | 0.00 | 0.00 | 0.00 | 70 | 1010.9 |
| 20260503081035 | 47 | 247 | 14.0 | 16.0 | 0.00 | 0.00 | 0.00 | 71 | 1010.9 |
| 20260503080548 | 47 | 246 | 13.0 | 16.0 | 0.00 | 0.00 | 0.00 | 68 | 1011.0 |
| 20260503072530 | 47 | 246 | 16.0 | 18.0 | 0.00 | 0.00 | 0.00 | 65 | 1011.1 |
| 20260503072041 | 47 | 257 | 9.0 | 15.0 | 0.00 | 0.00 | 0.00 | 59 | 1011.1 |
| 20260503071528 | 47 | 316 | 7.0 | 19.0 | 0.00 | 0.00 | 0.00 | 55 | 1011.1 |
| 20260503071035 | 47 | 264 | 12.0 | 19.0 | 0.00 | 0.00 | 0.00 | 58 | 1011.2 |
| 20260503070523 | 47 | 253 | 10.0 | 19.0 | 0.00 | 0.00 | 0.00 | 60 | 1011.2 |
| 20260503055042 | 46 | 327 | 2.0 | 3.0 | 0.00 | 0.00 | 0.00 | 56 | 1011.7 |
| 20260503054527 | 46 | 331 | 1.0 | 4.0 | 0.00 | 0.00 | 0.00 | 55 | 1011.7 |
| 20260503054037 | 46 | 331 | 2.0 | 4.0 | 0.00 | 0.00 | 0.00 | 54 | 1011.7 |
| 20260503053522 | 46 | 324 | 2.0 | 5.0 | 0.00 | 0.00 | 0.00 | 53 | 1011.7 |
| 20260503053033 | 47 | 342 | 2.0 | 5.0 | 0.00 | 0.00 | 0.00 | 53 | 1011.8 |
| 20260503052533 | 47 | 276 | 2.0 | 4.0 | 0.00 | 0.00 | 0.00 | 54 | 1011.8 |
| 20260503052052 | 47 | 347 | 1.0 | 8.0 | 0.00 | 0.00 | 0.00 | 54 | 1011.8 |
| 20260503051529 | 47 | 329 | 4.0 | 8.0 | 0.00 | 0.00 | 0.00 | 52 | 1011.9 |
| 20260503051037 | 47 | 303 | 2.0 | 5.0 | 0.00 | 0.00 | 0.00 | 52 | 1011.9 |
| 20260503050524 | 47 | 328 | 2.0 | 7.0 | 0.00 | 0.00 | 0.00 | 50 | 1011.9 |
| 20260503050035 | 47 | 334 | 3.0 | 6.0 | 0.00 | 0.00 | 0.00 | 49 | 1011.9 |
| 20260503045523 | 47 | 284 | 3.0 | 7.0 | 0.00 | 0.00 | 0.00 | 50 | 1011.9 |
| 20260503045028 | 48 | 300 | 3.0 | 8.0 | 0.00 | 0.00 | 0.00 | 50 | 1011.9 |
| 20260503044538 | 48 | 290 | 3.0 | 8.0 | 0.00 | 0.00 | 0.00 | 49 | 1011.9 |
| 20260503044030 | 47 | 335 | 3.0 | 6.0 | 0.00 | 0.00 | 0.00 | 50 | 1011.9 |
| 20260503043600 | 48 | 314 | 3.0 | 6.0 | 0.00 | 0.00 | 0.00 | 50 | 1011.9 |
| 20260503043031 | 47 | 319 | 3.0 | 6.0 | 0.00 | 0.00 | 0.00 | 50 | 1012.0 |
| 20260503042543 | 48 | 342 | 4.0 | 10.0 | 0.00 | 0.00 | 0.00 | 49 | 1011.9 |
| 20260503042053 | 48 | 262 | 4.0 | 10.0 | 0.00 | 0.00 | 0.00 | 48 | 1012.0 |
| 20260503041522 | 48 | 327 | 5.0 | 8.0 | 0.00 | 0.00 | 0.00 | 48 | 1012.0 |
| 20260503041100 | 48 | 269 | 3.0 | 7.0 | 0.00 | 0.00 | 0.00 | 48 | 1012.0 |
| 20260503040534 | 48 | 283 | 3.0 | 8.0 | 0.00 | 0.00 | 0.00 | 48 | 1012.0 |
| 20260503040037 | 47 | 318 | 3.0 | 6.0 | 0.00 | 0.00 | 0.00 | 48 | 1012.0 |
| 20260503035557 | 47 | 321 | 3.0 | 5.0 | 0.00 | 0.00 | 0.00 | 50 | 1012.0 |
| 20260503035041 | 48 | 309 | 2.0 | 6.0 | 0.00 | 0.00 | 0.00 | 48 | 1012.0 |
| 20260503034530 | 47 | 311 | 2.0 | 6.0 | 0.00 | 0.00 | 0.00 | 48 | 1012.0 |
| 20260503034041 | 47 | 321 | 2.0 | 7.0 | 0.00 | 0.00 | 0.00 | 47 | 1012.1 |
| 20260503033527 | 48 | 331 | 2.0 | 7.0 | 0.00 | 0.00 | 0.00 | 46 | 1012.1 |
| 20260503033039 | 48 | 316 | 3.0 | 7.0 | 0.00 | 0.00 | 0.00 | 46 | 1012.1 |
| 20260503032526 | 48 | 324 | 3.0 | 6.0 | 0.00 | 0.00 | 0.00 | 45 | 1012.1 |
| 20260503032039 | 48 | 284 | 3.0 | 5.0 | 0.00 | 0.00 | 0.00 | 45 | 1012.2 |
| 20260503031534 | 48 | 342 | 3.0 | 5.0 | 0.00 | 0.00 | 0.00 | 46 | 1012.2 |
| 20260503031027 | 48 | 269 | 3.0 | 6.0 | 0.00 | 0.00 | 0.00 | 45 | 1012.1 |
| 20260503030536 | 48 | 254 | 3.0 | 6.0 | 0.00 | 0.00 | 0.00 | 45 | 1012.2 |
| 20260503030024 | 48 | 314 | 3.0 | 6.0 | 0.00 | 0.00 | 0.00 | 47 | 1012.2 |
| 20260503025531 | 48 | 331 | 2.0 | 6.0 | 0.00 | 0.00 | 0.00 | 46 | 1012.2 |
| 20260503025042 | 48 | 338 | 3.0 | 6.0 | 0.00 | 0.00 | 0.00 | 45 | 1012.2 |
| 20260503024531 | 48 | 319 | 4.0 | 6.0 | 0.00 | 0.00 | 0.00 | 43 | 1012.3 |
| 20260503024040 | 49 | 328 | 2.0 | 7.0 | 0.00 | 0.00 | 0.00 | 45 | 1012.3 |
| 20260503023547 | 49 | 315 | 3.0 | 7.0 | 0.00 | 0.00 | 0.00 | 45 | 1012.3 |
| 20260503023101 | 49 | 350 | 4.0 | 7.0 | 0.00 | 0.00 | 0.00 | 45 | 1012.3 |
| 20260503022056 | 49 | 328 | 4.0 | 6.0 | 0.00 | 0.00 | 0.00 | 44 | 1012.4 |
| 20260503021523 | 49 | 308 | 3.0 | 7.0 | 0.00 | 0.00 | 0.00 | 46 | 1012.3 |
| 20260503021033 | 49 | 6 | 2.0 | 10.0 | 0.00 | 0.00 | 0.00 | 44 | 1012.3 |
| 20260503020523 | 49 | 1 | 4.0 | 21.0 | 0.00 | 0.00 | 0.00 | 44 | 1012.3 |
| 20260503020034 | 49 | 32 | 3.0 | 21.0 | 0.00 | 0.00 | 0.00 | 55 | 1012.3 |
| 20260503015556 | 50 | 216 | 13.0 | 17.0 | 0.00 | 0.00 | 0.00 | 62 | 1012.3 |
| 20260503015036 | 50 | 204 | 12.0 | 15.0 | 0.00 | 0.00 | 0.00 | 62 | 1012.2 |
| 20260503014548 | 49 | 189 | 12.0 | 16.0 | 0.00 | 0.00 | 0.00 | 62 | 1012.1 |
| 20260503014033 | 49 | 195 | 12.0 | 15.0 | 0.00 | 0.00 | 0.00 | 62 | 1012.1 |
| 20260503013541 | 49 | 200 | 12.0 | 14.0 | 0.00 | 0.00 | 0.00 | 61 | 1012.0 |
| 20260503013035 | 50 | 187 | 10.0 | 14.0 | 0.00 | 0.00 | 0.00 | 63 | 1012.0 |
| 20260503012524 | 49 | 179 | 10.0 | 14.0 | 0.00 | 0.00 | 0.00 | 60 | 1012.0 |
| 20260503012033 | 50 | 206 | 11.0 | 15.0 | 0.00 | 0.00 | 0.00 | 61 | 1012.0 |
| 20260503011547 | 50 | 194 | 13.0 | 17.0 | 0.00 | 0.00 | 0.00 | 61 | 1012.0 |
| 20260503011039 | 51 | 208 | 13.0 | 17.0 | 0.00 | 0.00 | 0.00 | 58 | 1011.9 |
| 20260503010523 | 51 | 226 | 14.0 | 18.0 | 0.00 | 0.00 | 0.00 | 58 | 1011.9 |
| 20260503010035 | 51 | 216 | 16.0 | 17.0 | 0.00 | 0.00 | 0.00 | 58 | 1011.9 |
| 20260503005523 | 51 | 216 | 14.0 | 18.0 | 0.00 | 0.00 | 0.00 | 60 | 1011.9 |
| 20260503005037 | 51 | 218 | 15.0 | 17.0 | 0.00 | 0.00 | 0.00 | 60 | 1012.0 |
| 20260503004522 | 50 | 221 | 15.0 | 17.0 | 0.00 | 0.00 | 0.00 | 56 | 1011.9 |
| 20260503004035 | 51 | 220 | 14.0 | 17.0 | 0.00 | 0.00 | 0.00 | 58 | 1012.0 |
| 20260503003523 | 51 | 222 | 14.0 | 16.0 | 0.00 | 0.00 | 0.00 | 57 | 1012.0 |
| 20260503003032 | 51 | 213 | 13.0 | 16.0 | 0.00 | 0.00 | 0.00 | 56 | 1012.0 |
| 20260503002529 | 51 | 224 | 12.0 | 16.0 | 0.00 | 0.00 | 0.00 | 57 | 1012.0 |
| 20260503002039 | 51 | 224 | 13.0 | 16.0 | 0.00 | 0.00 | 0.00 | 54 | 1012.0 |
| 20260503001523 | 51 | 244 | 13.0 | 15.0 | 0.00 | 0.00 | 0.00 | 59 | 1012.0 |
| 20260503001036 | 51 | 217 | 14.0 | 15.0 | 0.00 | 0.00 | 0.00 | 57 | 1011.9 |
| 20260503000522 | 51 | 236 | 12.0 | 14.0 | 0.00 | 0.00 | 0.00 | 57 | 1012.0 |
| 20260503000037 | 50 | 219 | 11.0 | 15.0 | 0.00 | 0.00 | 0.00 | 58 | 1012.0 |
| 20260502235541 | 50 | 211 | 13.0 | 16.0 | 0.00 | 0.00 | 0.00 | 53 | 1012.0 |
| 20260502235034 | 50 | 235 | 13.0 | 18.0 | 0.00 | 0.00 | 0.00 | 55 | 1012.0 |
| 20260502234524 | 51 | 216 | 16.0 | 18.0 | 0.00 | 0.00 | 0.00 | 55 | 1012.0 |
| 20260502234058 | 50 | 222 | 15.0 | 17.0 | 0.00 | 0.00 | 0.00 | 57 | 1012.0 |
| 20260502233527 | 50 | 216 | 15.0 | 17.0 | 0.00 | 0.00 | 0.00 | 56 | 1012.1 |